sensor_id;sensor_type;location;lat;lon;timestamp;pressure;altitude;pressure_sealevel;temperature;humidity
49152;BME280;34984;28.186;-16.764;2022-08-21T12:57:51;95186.70;;;20.64;54.89
49152;BME280;34984;28.186;-16.764;2022-08-21T13:00:22;95180.67;;;22.22;52.45
49152;BME280;34984;28.186;-16.764;2022-08-21T13:02:31;95172.15;;;22.44;50.70
49152;BME280;34984;28.186;-16.764;2022-08-21T13:05:02;95173.68;;;23.44;49.03
49152;BME280;34984;28.186;-16.764;2022-08-21T14:15:58;95174.99;;;24.48;51.19
49152;BME280;34984;28.186;-16.764;2022-08-21T14:18:25;95176.53;;;24.29;51.10
49152;BME280;34984;28.186;-16.764;2022-08-21T14:21:05;95178.02;;;24.76;50.21
49152;BME280;34984;28.186;-16.764;2022-08-21T14:23:33;95184.58;;;24.52;50.01
49152;BME280;34984;28.186;-16.764;2022-08-21T14:26:04;95183.04;;;24.91;49.56
49152;BME280;34984;28.186;-16.764;2022-08-21T14:28:37;95182.31;;;25.19;49.03
49152;BME280;34984;28.186;-16.764;2022-08-21T14:31:14;95183.78;;;25.05;48.92
49152;BME280;34984;28.186;-16.764;2022-08-21T14:33:43;95181.15;;;25.09;48.73
49152;BME280;34984;28.186;-16.764;2022-08-21T14:36:10;95177.41;;;25.10;48.48
49152;BME280;34984;28.186;-16.764;2022-08-21T14:38:39;95174.31;;;25.41;48.08
49152;BME280;34984;28.186;-16.764;2022-08-21T14:41:15;95172.17;;;25.14;48.24
49152;BME280;34984;28.186;-16.764;2022-08-21T14:43:43;95169.76;;;25.37;47.76
49152;BME280;34984;28.186;-16.764;2022-08-21T14:46:12;95174.74;;;25.29;48.05
49152;BME280;34984;28.186;-16.764;2022-08-21T14:48:39;95178.09;;;25.55;47.42
49152;BME280;34984;28.186;-16.764;2022-08-21T14:51:07;95185.35;;;25.45;47.51
49152;BME280;34984;28.186;-16.764;2022-08-21T14:53:33;95187.81;;;25.44;47.55
49152;BME280;34984;28.186;-16.764;2022-08-21T14:56:00;95189.00;;;25.38;47.49
49152;BME280;34984;28.186;-16.764;2022-08-21T14:58:28;95189.27;;;25.44;47.37
49152;BME280;34984;28.186;-16.764;2022-08-21T15:00:56;95193.25;;;25.46;47.27
49152;BME280;34984;28.186;-16.764;2022-08-21T15:03:23;95188.11;;;25.39;47.59
49152;BME280;34984;28.186;-16.764;2022-08-21T15:05:51;95187.32;;;25.31;47.38
49152;BME280;34984;28.186;-16.764;2022-08-21T15:08:18;95182.96;;;25.44;47.45
49152;BME280;34984;28.186;-16.764;2022-08-21T15:10:45;95183.89;;;25.39;47.80
49152;BME280;34984;28.186;-16.764;2022-08-21T15:13:12;95174.86;;;25.48;47.42
49152;BME280;34984;28.186;-16.764;2022-08-21T15:15:43;95172.73;;;25.41;47.94
49152;BME280;34984;28.186;-16.764;2022-08-21T15:18:11;95167.07;;;25.36;47.81
49152;BME280;34984;28.186;-16.764;2022-08-21T15:20:39;95160.36;;;25.36;48.11
49152;BME280;34984;28.186;-16.764;2022-08-21T15:23:07;95157.10;;;25.22;48.31
49152;BME280;34984;28.186;-16.764;2022-08-21T15:25:35;95154.97;;;25.28;48.25
49152;BME280;34984;28.186;-16.764;2022-08-21T15:28:04;95146.95;;;25.39;48.76
49152;BME280;34984;28.186;-16.764;2022-08-21T15:30:31;95143.42;;;25.65;48.03
49152;BME280;34984;28.186;-16.764;2022-08-21T15:32:59;95141.53;;;25.57;48.43
49152;BME280;34984;28.186;-16.764;2022-08-21T15:35:26;95137.19;;;25.43;48.87
49152;BME280;34984;28.186;-16.764;2022-08-21T15:37:54;95139.29;;;25.65;48.82
49152;BME280;34984;28.186;-16.764;2022-08-21T15:40:22;95135.25;;;25.64;49.13
49152;BME280;34984;28.186;-16.764;2022-08-21T15:42:51;95130.89;;;25.65;49.22
49152;BME280;34984;28.186;-16.764;2022-08-21T15:45:18;95125.09;;;25.58;49.01
49152;BME280;34984;28.186;-16.764;2022-08-21T15:47:49;95125.31;;;25.43;49.19
49152;BME280;34984;28.186;-16.764;2022-08-21T15:50:17;95121.76;;;25.58;49.40
49152;BME280;34984;28.186;-16.764;2022-08-21T15:52:45;95115.91;;;25.54;49.78
49152;BME280;34984;28.186;-16.764;2022-08-21T15:55:12;95113.45;;;25.63;50.02
49152;BME280;34984;28.186;-16.764;2022-08-21T15:57:44;95113.77;;;25.56;49.75
49152;BME280;34984;28.186;-16.764;2022-08-21T16:00:15;95114.66;;;25.37;50.10
49152;BME280;34984;28.186;-16.764;2022-08-21T16:02:46;95125.39;;;25.72;49.93
49152;BME280;34984;28.186;-16.764;2022-08-21T16:05:15;95140.54;;;25.54;50.21
49152;BME280;34984;28.186;-16.764;2022-08-21T16:07:44;95142.26;;;25.74;50.16
49152;BME280;34984;28.186;-16.764;2022-08-21T16:10:13;95139.20;;;25.39;50.77
49152;BME280;34984;28.186;-16.764;2022-08-21T16:12:44;95135.79;;;25.58;50.52
49152;BME280;34984;28.186;-16.764;2022-08-21T16:15:13;95131.32;;;25.78;50.56
49152;BME280;34984;28.186;-16.764;2022-08-21T16:17:44;95121.98;;;25.56;51.06
49152;BME280;34984;28.186;-16.764;2022-08-21T16:20:15;95110.95;;;25.49;50.69
49152;BME280;34984;28.186;-16.764;2022-08-21T16:22:42;95105.06;;;25.69;50.62
49152;BME280;34984;28.186;-16.764;2022-08-21T16:25:09;95107.14;;;25.74;50.51
49152;BME280;34984;28.186;-16.764;2022-08-21T16:27:37;95119.93;;;25.67;51.27
49152;BME280;34984;28.186;-16.764;2022-08-21T16:30:06;95126.61;;;25.66;51.32
49152;BME280;34984;28.186;-16.764;2022-08-21T16:32:33;95128.83;;;25.75;50.57
49152;BME280;34984;28.186;-16.764;2022-08-21T16:35:01;95132.13;;;25.54;50.96
49152;BME280;34984;28.186;-16.764;2022-08-21T16:37:29;95126.35;;;25.56;51.05
49152;BME280;34984;28.186;-16.764;2022-08-21T16:39:56;95126.16;;;25.62;50.93
49152;BME280;34984;28.186;-16.764;2022-08-21T16:42:24;95125.92;;;25.67;51.27
49152;BME280;34984;28.186;-16.764;2022-08-21T16:44:53;95124.74;;;25.55;52.22
49152;BME280;34984;28.186;-16.764;2022-08-21T16:47:20;95124.28;;;25.56;51.48
49152;BME280;34984;28.186;-16.764;2022-08-21T16:49:48;95127.18;;;25.77;51.33
49152;BME280;34984;28.186;-16.764;2022-08-21T16:52:15;95124.72;;;25.76;51.17
49152;BME280;34984;28.186;-16.764;2022-08-21T16:54:41;95120.15;;;25.67;51.52
49152;BME280;34984;28.186;-16.764;2022-08-21T16:57:09;95113.44;;;25.70;51.96
49152;BME280;34984;28.186;-16.764;2022-08-21T16:59:38;95107.66;;;25.83;51.50
49152;BME280;34984;28.186;-16.764;2022-08-21T17:02:11;95109.07;;;25.60;51.61
49152;BME280;34984;28.186;-16.764;2022-08-21T17:04:42;95104.39;;;25.88;51.38
49152;BME280;34984;28.186;-16.764;2022-08-21T17:07:09;95105.14;;;25.66;52.06
49152;BME280;34984;28.186;-16.764;2022-08-21T17:09:36;95091.88;;;25.80;51.51
49152;BME280;34984;28.186;-16.764;2022-08-21T17:12:03;95083.71;;;25.77;51.81
49152;BME280;34984;28.186;-16.764;2022-08-21T17:14:31;95076.19;;;25.59;51.68
49152;BME280;34984;28.186;-16.764;2022-08-21T17:16:59;95076.51;;;25.73;51.59
49152;BME280;34984;28.186;-16.764;2022-08-21T17:19:27;95078.95;;;25.86;51.09
49152;BME280;34984;28.186;-16.764;2022-08-21T17:21:54;95080.91;;;25.67;51.60
49152;BME280;34984;28.186;-16.764;2022-08-21T17:24:21;95083.56;;;25.64;51.77
49152;BME280;34984;28.186;-16.764;2022-08-21T17:26:48;95075.15;;;25.61;51.88
49152;BME280;34984;28.186;-16.764;2022-08-21T17:29:16;95068.87;;;25.76;51.91
49152;BME280;34984;28.186;-16.764;2022-08-21T17:31:44;95069.34;;;25.78;51.80
49152;BME280;34984;28.186;-16.764;2022-08-21T17:34:11;95066.25;;;25.72;51.58
49152;BME280;34984;28.186;-16.764;2022-08-21T17:36:39;95064.26;;;26.06;51.74
49152;BME280;34984;28.186;-16.764;2022-08-21T17:39:06;95065.80;;;25.86;51.65
49152;BME280;34984;28.186;-16.764;2022-08-21T17:41:34;95069.75;;;25.66;51.82
49152;BME280;34984;28.186;-16.764;2022-08-21T17:44:04;95066.87;;;25.81;52.10
49152;BME280;34984;28.186;-16.764;2022-08-21T17:46:32;95071.43;;;25.98;51.70
49152;BME280;34984;28.186;-16.764;2022-08-21T17:49:00;95076.63;;;25.75;51.76
49152;BME280;34984;28.186;-16.764;2022-08-21T17:51:27;95085.60;;;26.00;51.72
49152;BME280;34984;28.186;-16.764;2022-08-21T17:53:55;95092.02;;;25.80;51.46
49152;BME280;34984;28.186;-16.764;2022-08-21T17:56:24;95087.48;;;25.94;51.66
49152;BME280;34984;28.186;-16.764;2022-08-21T17:58:53;95082.60;;;25.96;51.38
49152;BME280;34984;28.186;-16.764;2022-08-21T18:01:21;95083.53;;;25.82;51.05
49152;BME280;34984;28.186;-16.764;2022-08-21T18:03:48;95086.57;;;25.84;51.53
49152;BME280;34984;28.186;-16.764;2022-08-21T18:06:15;95092.16;;;25.94;51.10
49152;BME280;34984;28.186;-16.764;2022-08-21T18:08:42;95092.32;;;25.92;51.09
49152;BME280;34984;28.186;-16.764;2022-08-21T18:11:10;95086.58;;;26.00;51.03
49152;BME280;34984;28.186;-16.764;2022-08-21T18:13:39;95079.27;;;25.99;51.29
49152;BME280;34984;28.186;-16.764;2022-08-21T18:16:06;95075.55;;;26.04;51.42
49152;BME280;34984;28.186;-16.764;2022-08-21T18:18:40;95076.09;;;25.77;51.66
49152;BME280;34984;28.186;-16.764;2022-08-21T18:21:08;95076.69;;;26.22;50.94
49152;BME280;34984;28.186;-16.764;2022-08-21T18:23:35;95074.84;;;26.06;50.68
49152;BME280;34984;28.186;-16.764;2022-08-21T18:26:04;95074.50;;;26.04;50.58
49152;BME280;34984;28.186;-16.764;2022-08-21T18:28:31;95079.65;;;25.87;50.68
49152;BME280;34984;28.186;-16.764;2022-08-21T18:30:59;95075.76;;;25.93;50.55
49152;BME280;34984;28.186;-16.764;2022-08-21T18:33:26;95079.93;;;25.99;50.47
49152;BME280;34984;28.186;-16.764;2022-08-21T18:35:54;95082.02;;;25.98;50.03
49152;BME280;34984;28.186;-16.764;2022-08-21T18:38:21;95079.88;;;25.94;50.06
49152;BME280;34984;28.186;-16.764;2022-08-21T18:40:50;95076.17;;;25.83;49.68
49152;BME280;34984;28.186;-16.764;2022-08-21T18:43:19;95076.89;;;26.19;49.85
49152;BME280;34984;28.186;-16.764;2022-08-21T18:45:47;95083.36;;;25.94;49.99
49152;BME280;34984;28.186;-16.764;2022-08-21T18:48:15;95085.84;;;25.99;49.92
49152;BME280;34984;28.186;-16.764;2022-08-21T18:50:44;95090.54;;;26.02;49.85
49152;BME280;34984;28.186;-16.764;2022-08-21T18:53:13;95096.15;;;26.02;49.80
49152;BME280;34984;28.186;-16.764;2022-08-21T18:55:42;95097.44;;;26.01;49.76
49152;BME280;34984;28.186;-16.764;2022-08-21T18:58:11;95099.74;;;26.05;49.65
49152;BME280;34984;28.186;-16.764;2022-08-21T19:00:42;95095.71;;;25.96;49.72
49152;BME280;34984;28.186;-16.764;2022-08-21T19:03:10;95093.24;;;25.82;50.03
49152;BME280;34984;28.186;-16.764;2022-08-21T19:05:37;95093.77;;;26.05;49.45
49152;BME280;34984;28.186;-16.764;2022-08-21T19:08:04;95092.60;;;26.09;49.69
49152;BME280;34984;28.186;-16.764;2022-08-21T19:10:31;95093.01;;;25.95;49.67
49152;BME280;34984;28.186;-16.764;2022-08-21T19:12:59;95089.85;;;26.10;49.63
49152;BME280;34984;28.186;-16.764;2022-08-21T19:15:27;95081.82;;;25.98;49.55
49152;BME280;34984;28.186;-16.764;2022-08-21T19:17:54;95080.92;;;25.86;49.76
49152;BME280;34984;28.186;-16.764;2022-08-21T19:20:25;95082.27;;;25.94;49.61
49152;BME280;34984;28.186;-16.764;2022-08-21T19:22:53;95082.01;;;25.93;49.47
49152;BME280;34984;28.186;-16.764;2022-08-21T19:25:22;95079.62;;;25.81;49.34
49152;BME280;34984;28.186;-16.764;2022-08-21T19:27:49;95081.34;;;26.25;49.20
49152;BME280;34984;28.186;-16.764;2022-08-21T19:30:16;95081.62;;;25.86;49.11
49152;BME280;34984;28.186;-16.764;2022-08-21T19:32:45;95086.19;;;25.83;48.93
49152;BME280;34984;28.186;-16.764;2022-08-21T19:35:13;95082.78;;;25.89;48.93
49152;BME280;34984;28.186;-16.764;2022-08-21T19:37:41;95083.02;;;25.94;48.76
49152;BME280;34984;28.186;-16.764;2022-08-21T19:40:09;95083.13;;;26.11;48.71
49152;BME280;34984;28.186;-16.764;2022-08-21T19:42:36;95083.67;;;25.94;48.62
49152;BME280;34984;28.186;-16.764;2022-08-21T19:45:06;95078.34;;;26.10;48.56
49152;BME280;34984;28.186;-16.764;2022-08-21T19:47:34;95071.87;;;26.27;48.46
49152;BME280;34984;28.186;-16.764;2022-08-21T19:50:04;95070.13;;;26.22;48.35
49152;BME280;34984;28.186;-16.764;2022-08-21T19:52:32;95081.03;;;25.93;48.71
49152;BME280;34984;28.186;-16.764;2022-08-21T19:54:58;95078.78;;;25.96;48.73
49152;BME280;34984;28.186;-16.764;2022-08-21T19:57:25;95068.99;;;25.99;48.70
49152;BME280;34984;28.186;-16.764;2022-08-21T19:59:52;95055.21;;;26.24;48.62
49152;BME280;34984;28.186;-16.764;2022-08-21T20:02:20;95050.73;;;26.01;48.82
49152;BME280;34984;28.186;-16.764;2022-08-21T20:04:47;95056.33;;;25.95;49.00
49152;BME280;34984;28.186;-16.764;2022-08-21T20:07:14;95051.67;;;26.19;48.92
49152;BME280;34984;28.186;-16.764;2022-08-21T20:09:41;95046.30;;;25.94;49.14
49152;BME280;34984;28.186;-16.764;2022-08-21T20:12:10;95053.09;;;26.25;48.93
49152;BME280;34984;28.186;-16.764;2022-08-21T20:14:42;95047.65;;;26.22;49.15
49152;BME280;34984;28.186;-16.764;2022-08-21T20:17:12;95050.77;;;26.03;49.12
49152;BME280;34984;28.186;-16.764;2022-08-21T20:19:42;95057.28;;;26.10;49.46
49152;BME280;34984;28.186;-16.764;2022-08-21T20:22:10;95049.24;;;25.97;49.54
49152;BME280;34984;28.186;-16.764;2022-08-21T20:24:38;95042.40;;;25.92;49.64
49152;BME280;34984;28.186;-16.764;2022-08-21T20:27:05;95041.51;;;26.11;49.33
49152;BME280;34984;28.186;-16.764;2022-08-21T20:29:32;95043.11;;;26.09;49.36
49152;BME280;34984;28.186;-16.764;2022-08-21T20:32:03;95044.91;;;25.97;49.68
49152;BME280;34984;28.186;-16.764;2022-08-21T20:34:30;95045.86;;;26.04;49.53
49152;BME280;34984;28.186;-16.764;2022-08-21T20:36:57;95058.91;;;25.93;49.74
49152;BME280;34984;28.186;-16.764;2022-08-21T20:39:25;95053.93;;;25.86;49.83
49152;BME280;34984;28.186;-16.764;2022-08-21T20:41:52;95050.65;;;26.04;49.33
49152;BME280;34984;28.186;-16.764;2022-08-21T20:44:20;95055.07;;;26.00;49.28
49152;BME280;34984;28.186;-16.764;2022-08-21T20:46:47;95064.65;;;26.04;49.14
49152;BME280;34984;28.186;-16.764;2022-08-21T20:49:18;95065.45;;;25.87;49.14
49152;BME280;34984;28.186;-16.764;2022-08-21T20:51:49;95071.13;;;25.99;49.03
49152;BME280;34984;28.186;-16.764;2022-08-21T20:54:24;95076.14;;;26.07;48.84
49152;BME280;34984;28.186;-16.764;2022-08-21T20:56:56;95089.72;;;25.85;49.16
49152;BME280;34984;28.186;-16.764;2022-08-21T20:59:39;95088.68;;;26.27;48.88
49152;BME280;34984;28.186;-16.764;2022-08-21T21:02:18;95093.66;;;26.14;48.85
49152;BME280;34984;28.186;-16.764;2022-08-21T21:04:50;95097.87;;;26.08;48.91
49152;BME280;34984;28.186;-16.764;2022-08-21T21:07:23;95095.69;;;26.15;48.81
49152;BME280;34984;28.186;-16.764;2022-08-21T21:09:53;95101.57;;;26.14;48.79
49152;BME280;34984;28.186;-16.764;2022-08-21T21:12:26;95105.08;;;26.07;48.62
49152;BME280;34984;28.186;-16.764;2022-08-21T21:14:57;95110.24;;;25.99;48.78
49152;BME280;34984;28.186;-16.764;2022-08-21T21:17:30;95116.66;;;25.88;48.69
49152;BME280;34984;28.186;-16.764;2022-08-21T21:20:03;95113.54;;;25.99;48.79
49152;BME280;34984;28.186;-16.764;2022-08-21T21:22:37;95112.95;;;26.11;48.54
49152;BME280;34984;28.186;-16.764;2022-08-21T21:25:10;95117.85;;;25.99;48.51
49152;BME280;34984;28.186;-16.764;2022-08-21T21:27:43;95120.87;;;26.01;48.77
49152;BME280;34984;28.186;-16.764;2022-08-21T21:30:15;95122.64;;;25.93;48.88
49152;BME280;34984;28.186;-16.764;2022-08-21T21:32:44;95116.43;;;25.99;48.77
49152;BME280;34984;28.186;-16.764;2022-08-21T21:35:13;95116.96;;;25.99;48.73
49152;BME280;34984;28.186;-16.764;2022-08-21T21:37:47;95123.72;;;25.99;48.69
49152;BME280;34984;28.186;-16.764;2022-08-21T21:40:29;95127.46;;;25.99;48.64
49152;BME280;34984;28.186;-16.764;2022-08-21T21:43:04;95128.77;;;26.03;48.56
49152;BME280;34984;28.186;-16.764;2022-08-21T21:45:39;95127.12;;;26.06;48.39
49152;BME280;34984;28.186;-16.764;2022-08-21T21:48:15;95123.98;;;26.07;48.31
49152;BME280;34984;28.186;-16.764;2022-08-21T21:50:51;95128.18;;;25.99;48.39
49152;BME280;34984;28.186;-16.764;2022-08-21T21:53:31;95129.28;;;25.99;48.34
49152;BME280;34984;28.186;-16.764;2022-08-21T21:56:06;95135.00;;;26.04;48.19
49152;BME280;34984;28.186;-16.764;2022-08-21T21:58:52;95130.32;;;25.99;48.19
49152;BME280;34984;28.186;-16.764;2022-08-21T22:01:32;95126.54;;;25.91;48.22
49152;BME280;34984;28.186;-16.764;2022-08-21T22:04:05;95129.68;;;25.84;48.31
49152;BME280;34984;28.186;-16.764;2022-08-21T22:06:43;95123.93;;;26.35;47.79
49152;BME280;34984;28.186;-16.764;2022-08-21T22:09:17;95125.15;;;25.96;47.97
49152;BME280;34984;28.186;-16.764;2022-08-21T22:11:59;95127.16;;;25.99;47.84
49152;BME280;34984;28.186;-16.764;2022-08-21T22:14:33;95129.19;;;26.13;47.81
49152;BME280;34984;28.186;-16.764;2022-08-21T22:17:09;95126.61;;;25.98;47.77
49152;BME280;34984;28.186;-16.764;2022-08-21T22:19:42;95131.01;;;25.95;47.55
49152;BME280;34984;28.186;-16.764;2022-08-21T22:22:14;95132.51;;;26.00;47.57
49152;BME280;34984;28.186;-16.764;2022-08-21T22:24:45;95126.41;;;26.01;47.54
49152;BME280;34984;28.186;-16.764;2022-08-21T22:27:17;95120.48;;;26.13;47.53
49152;BME280;34984;28.186;-16.764;2022-08-21T22:29:47;95114.91;;;25.90;47.48
49152;BME280;34984;28.186;-16.764;2022-08-21T22:32:24;95107.17;;;26.16;47.22
49152;BME280;34984;28.186;-16.764;2022-08-21T22:35:14;95107.64;;;25.87;47.52
49152;BME280;34984;28.186;-16.764;2022-08-21T22:37:44;95104.81;;;25.98;47.32
49152;BME280;34984;28.186;-16.764;2022-08-21T22:40:19;95101.53;;;26.22;47.27
49152;BME280;34984;28.186;-16.764;2022-08-21T22:42:57;95104.66;;;26.00;47.12
49152;BME280;34984;28.186;-16.764;2022-08-21T22:45:24;95100.21;;;26.15;47.09
49152;BME280;34984;28.186;-16.764;2022-08-21T22:47:52;95096.44;;;25.96;47.06
49152;BME280;34984;28.186;-16.764;2022-08-21T22:50:28;95093.23;;;26.04;46.79
49152;BME280;34984;28.186;-16.764;2022-08-21T22:52:58;95092.69;;;26.27;46.21
49152;BME280;34984;28.186;-16.764;2022-08-21T22:55:32;95095.18;;;25.99;46.66
49152;BME280;34984;28.186;-16.764;2022-08-21T22:58:06;95094.12;;;25.94;46.82
49152;BME280;34984;28.186;-16.764;2022-08-21T23:00:40;95090.27;;;25.75;46.57
49152;BME280;34984;28.186;-16.764;2022-08-21T23:03:17;95091.95;;;25.88;46.69
49152;BME280;34984;28.186;-16.764;2022-08-21T23:05:47;95095.74;;;25.93;46.31
49152;BME280;34984;28.186;-16.764;2022-08-21T23:08:23;95094.84;;;25.97;46.41
49152;BME280;34984;28.186;-16.764;2022-08-21T23:10:57;95090.57;;;26.03;45.72
49152;BME280;34984;28.186;-16.764;2022-08-21T23:13:24;95088.67;;;26.06;45.62
49152;BME280;34984;28.186;-16.764;2022-08-21T23:16:00;95095.19;;;25.83;45.56
49152;BME280;34984;28.186;-16.764;2022-08-21T23:18:47;95096.37;;;25.83;44.98
49152;BME280;34984;28.186;-16.764;2022-08-21T23:21:22;95095.39;;;26.02;44.60
49152;BME280;34984;28.186;-16.764;2022-08-21T23:24:15;95098.16;;;25.87;44.90
49152;BME280;34984;28.186;-16.764;2022-08-21T23:26:51;95096.61;;;25.86;44.66
49152;BME280;34984;28.186;-16.764;2022-08-21T23:29:27;95093.30;;;25.87;43.48
49152;BME280;34984;28.186;-16.764;2022-08-21T23:32:04;95093.28;;;26.14;44.02
49152;BME280;34984;28.186;-16.764;2022-08-21T23:34:44;95087.33;;;26.14;44.03
49152;BME280;34984;28.186;-16.764;2022-08-21T23:37:24;95084.37;;;26.16;43.01
49152;BME280;34984;28.186;-16.764;2022-08-21T23:40:05;95083.82;;;26.06;43.66
49152;BME280;34984;28.186;-16.764;2022-08-21T23:42:48;95084.43;;;26.04;43.81
49152;BME280;34984;28.186;-16.764;2022-08-21T23:45:24;95082.78;;;26.25;42.95
49152;BME280;34984;28.186;-16.764;2022-08-21T23:47:58;95085.52;;;25.95;43.52
49152;BME280;34984;28.186;-16.764;2022-08-21T23:50:37;95086.43;;;26.03;43.48
49152;BME280;34984;28.186;-16.764;2022-08-21T23:53:17;95082.36;;;25.92;43.28
49152;BME280;34984;28.186;-16.764;2022-08-21T23:56:00;95083.56;;;25.85;43.16
49152;BME280;34984;28.186;-16.764;2022-08-21T23:58:38;95083.10;;;25.98;43.31
